createdAt,value
2023-05-05T00:03:36.300Z,14.73
2023-05-05T00:09:39.742Z,9.83
2023-05-05T00:15:47.209Z,9.37
2023-05-05T00:21:49.727Z,19.37
2023-05-05T00:27:55.263Z,14.10
2023-05-05T00:33:57.709Z,11.07
2023-05-05T00:40:00.214Z,16.93
2023-05-05T00:46:26.865Z,15.53
2023-05-05T00:52:30.228Z,17.83
2023-05-05T00:58:38.714Z,13.30
2023-05-05T01:04:43.186Z,16.80
2023-05-05T01:11:11.749Z,14.53
2023-05-05T01:17:23.679Z,15.50
2023-05-05T01:24:01.843Z,17.03
2023-05-05T01:30:23.364Z,25.90
2023-05-05T01:36:33.891Z,24.50
2023-05-05T01:42:40.370Z,24.17
2023-05-05T01:48:44.897Z,23.43
2023-05-05T01:54:50.400Z,20.63
2023-05-05T02:00:57.896Z,16.93
2023-05-05T02:07:06.353Z,16.70
2023-05-05T02:13:12.018Z,23.23
2023-05-05T02:19:16.302Z,24.30
2023-05-05T02:25:18.772Z,26.43
2023-05-05T02:31:26.350Z,23.53
2023-05-05T02:37:32.759Z,21.67
2023-05-05T02:43:40.249Z,23.60
2023-05-05T02:49:48.720Z,27.30
2023-05-05T02:55:58.232Z,26.50
2023-05-05T03:02:42.976Z,24.17
2023-05-05T03:08:55.383Z,25.37
2023-05-05T03:15:04.795Z,22.30
2023-05-05T03:21:12.352Z,18.33
2023-05-05T03:27:14.413Z,27.37
2023-05-05T03:33:17.317Z,23.47
2023-05-05T03:39:19.801Z,21.60
2023-05-05T03:45:24.655Z,24.13
2023-05-05T03:51:27.760Z,21.23
2023-05-05T03:57:30.254Z,19.47
2023-05-05T04:03:34.758Z,17.73
2023-05-05T04:09:41.227Z,18.77
2023-05-05T04:15:46.727Z,16.57
2023-05-05T04:21:50.330Z,16.80
2023-05-05T04:27:52.696Z,18.37
2023-05-05T04:33:55.214Z,18.53
2023-05-05T04:39:57.678Z,15.97
2023-05-05T04:46:02.139Z,19.40
2023-05-05T04:52:07.634Z,28.83
2023-05-05T04:58:10.089Z,16.80
2023-05-05T05:04:14.301Z,14.53
2023-05-05T05:10:17.049Z,18.17
2023-05-05T05:16:19.595Z,16.33
2023-05-05T05:22:25.003Z,16.27
2023-05-05T05:28:34.849Z,13.83
2023-05-05T05:34:51.367Z,19.37
2023-05-05T05:40:57.883Z,15.33
2023-05-05T05:47:01.346Z,16.40
2023-05-05T05:53:06.791Z,20.60
2023-05-05T05:59:11.257Z,20.47
2023-05-05T06:05:23.232Z,13.60
2023-05-05T06:11:41.300Z,17.37
2023-05-05T06:17:58.914Z,19.67
2023-05-05T06:24:01.415Z,15.40
2023-05-05T06:30:04.921Z,21.90
2023-05-05T06:36:38.476Z,14.87
2023-05-05T06:42:41.954Z,19.77
2023-05-05T06:49:05.499Z,17.17
2023-05-05T06:55:08.031Z,29.53
2023-05-05T07:02:07.711Z,20.17
2023-05-05T07:08:12.191Z,21.13
2023-05-05T07:14:14.670Z,15.47
2023-05-05T07:20:17.124Z,19.80
2023-05-05T07:26:19.618Z,24.40
2023-05-05T07:32:22.782Z,18.80
2023-05-05T07:38:26.564Z,17.23
2023-05-05T07:44:30.070Z,15.50
2023-05-05T07:50:32.549Z,16.73
2023-05-05T07:56:45.000Z,17.70
2023-05-05T08:02:48.142Z,12.40
2023-05-05T08:08:50.125Z,19.10
2023-05-05T08:14:56.440Z,21.03
2023-05-05T08:20:58.904Z,15.87
2023-05-05T08:27:02.435Z,13.73
2023-05-05T08:33:11.854Z,14.40
2023-05-05T08:39:14.433Z,13.20
2023-05-05T08:45:16.873Z,17.93
2023-05-05T08:51:21.070Z,15.83
2023-05-05T08:57:32.786Z,12.67
2023-05-05T09:03:39.899Z,11.80
2023-05-05T09:09:43.151Z,9.23
2023-05-05T09:15:46.256Z,11.90
2023-05-05T09:21:50.678Z,10.25
2023-05-05T09:27:52.628Z,12.82
2023-05-05T09:34:01.529Z,8.88
2023-05-05T09:40:08.210Z,11.38
2023-05-05T09:46:10.046Z,11.75
2023-05-05T09:52:16.784Z,12.75
2023-05-05T09:58:25.231Z,22.88
2023-05-05T10:04:39.906Z,8.32
2023-05-05T10:10:50.136Z,11.50
2023-05-05T10:16:53.788Z,12.07
2023-05-05T10:23:03.376Z,12.15
2023-05-05T10:29:12.589Z,12.57
2023-05-05T10:35:23.500Z,14.95
2023-05-05T10:41:27.279Z,7.13
2023-05-05T10:47:30.726Z,8.07
2023-05-05T10:53:44.263Z,13.02
2023-05-05T10:59:47.874Z,27.00
2023-05-05T11:06:05.301Z,13.25
2023-05-05T11:12:11.751Z,6.18
2023-05-05T11:18:36.385Z,9.65
2023-05-05T11:24:40.798Z,9.65
2023-05-05T11:31:39.581Z,8.77
2023-05-05T11:37:43.970Z,8.52
2023-05-05T11:43:53.569Z,8.32
2023-05-05T11:49:57.041Z,6.80
2023-05-05T11:56:13.522Z,7.35
2023-05-05T12:02:31.129Z,16.83
2023-05-05T12:08:40.594Z,7.53
2023-05-05T12:14:54.164Z,8.55
2023-05-05T12:20:59.665Z,9.00
2023-05-05T12:27:29.311Z,5.45
2023-05-05T12:33:40.099Z,17.40
2023-05-05T12:39:44.120Z,21.38
2023-05-05T12:46:10.991Z,9.40
2023-05-05T12:52:21.357Z,20.92
2023-05-05T12:58:23.844Z,15.18
2023-05-05T13:04:29.351Z,10.35
2023-05-05T13:10:31.862Z,7.97
2023-05-05T13:16:34.324Z,9.15
2023-05-05T13:22:52.838Z,8.00
2023-05-05T13:29:07.388Z,6.90
2023-05-05T13:35:23.902Z,9.35
2023-05-05T13:41:26.383Z,9.90
2023-05-05T13:47:32.890Z,11.57
2023-05-05T13:53:45.704Z,6.63
2023-05-05T13:59:54.474Z,5.95
2023-05-05T14:06:03.814Z,7.38
2023-05-05T14:12:08.269Z,6.47
2023-05-05T14:18:17.376Z,7.65
2023-05-05T14:24:20.844Z,7.13
2023-05-05T14:30:25.328Z,5.70
2023-05-05T14:36:37.804Z,6.45
2023-05-05T14:42:40.971Z,10.68
2023-05-05T14:48:52.789Z,8.38
2023-05-05T14:54:59.562Z,11.68
2023-05-05T15:01:03.536Z,7.38
2023-05-05T15:07:07.883Z,12.55
2023-05-05T15:13:12.768Z,15.45
2023-05-05T15:19:17.694Z,11.00
2023-05-05T15:25:20.843Z,10.57
2023-05-05T15:31:30.115Z,17.40
2023-05-05T15:37:37.864Z,9.63
2023-05-05T15:43:46.003Z,8.05
2023-05-05T15:50:03.755Z,11.38
2023-05-05T15:56:13.249Z,16.90
2023-05-05T16:02:15.801Z,7.70
2023-05-05T16:08:41.285Z,16.65
2023-05-05T16:14:43.417Z,10.75
2023-05-05T16:20:48.282Z,12.32
2023-05-05T16:26:51.769Z,9.57
2023-05-05T16:32:55.254Z,7.10
2023-05-05T16:39:00.043Z,11.63
2023-05-05T16:45:04.011Z,7.67
2023-05-05T16:51:06.663Z,10.02
2023-05-05T16:57:09.182Z,8.02
2023-05-05T17:03:11.619Z,10.48
2023-05-05T17:09:14.083Z,11.45
2023-05-05T17:15:21.012Z,12.98
2023-05-05T17:21:24.042Z,9.90
2023-05-05T17:27:27.892Z,27.83
2023-05-05T17:33:33.034Z,45.05
2023-05-05T17:39:35.548Z,35.45
2023-05-05T17:45:38.013Z,62.60
2023-05-05T17:51:43.536Z,178.03
2023-05-05T17:57:46.009Z,145.70
2023-05-05T18:03:48.542Z,80.20
2023-05-05T18:09:50.946Z,62.77
2023-05-05T18:15:53.402Z,45.50
2023-05-05T18:21:55.931Z,23.53
2023-05-05T18:27:58.406Z,13.63
2023-05-05T18:34:03.882Z,16.43
2023-05-05T18:40:07.382Z,9.47
2023-05-05T18:46:09.834Z,8.33
2023-05-05T18:52:12.298Z,9.37
2023-05-05T18:58:14.786Z,12.37
2023-05-05T19:04:30.102Z,6.27
2023-05-05T19:10:33.753Z,14.37
2023-05-05T19:16:36.226Z,12.43
2023-05-05T19:22:38.677Z,17.43
2023-05-05T19:28:44.145Z,21.13
2023-05-05T19:34:46.634Z,22.03
2023-05-05T19:40:51.430Z,21.57
2023-05-05T19:46:55.615Z,16.83
2023-05-05T19:52:58.084Z,15.93
2023-05-05T19:59:05.595Z,31.90
2023-05-05T20:05:08.065Z,23.03
2023-05-05T20:11:10.552Z,15.67
2023-05-05T20:17:15.012Z,14.30
2023-05-05T20:23:17.490Z,18.23
2023-05-05T20:29:20.952Z,9.40
2023-05-05T20:35:23.393Z,12.97
2023-05-05T20:41:25.933Z,12.50
2023-05-05T20:47:28.397Z,18.97
2023-05-05T20:53:31.862Z,9.57
2023-05-05T20:59:34.364Z,10.77
2023-05-05T21:05:37.844Z,13.70
2023-05-05T21:11:40.273Z,20.33
2023-05-05T21:17:42.804Z,12.83
2023-05-05T21:23:48.262Z,9.23
2023-05-05T21:29:54.730Z,13.63
2023-05-05T21:35:57.211Z,9.43
2023-05-05T21:42:00.726Z,17.33
2023-05-05T21:48:03.220Z,6.53
2023-05-05T21:54:05.667Z,8.77
2023-05-05T22:00:12.967Z,12.53
2023-05-05T22:06:19.617Z,11.87
2023-05-05T22:12:22.110Z,14.37
2023-05-05T22:18:24.592Z,8.97
2023-05-05T22:24:27.036Z,9.80
2023-05-05T22:30:29.538Z,7.60
2023-05-05T22:36:31.764Z,11.73
2023-05-05T22:42:38.620Z,7.20
2023-05-05T22:48:40.893Z,6.90
2023-05-05T22:54:43.381Z,6.13
2023-05-05T23:00:46.926Z,11.80
2023-05-05T23:06:49.350Z,15.60
2023-05-05T23:12:51.848Z,6.70
2023-05-05T23:18:54.297Z,7.30
2023-05-05T23:24:56.796Z,9.73
2023-05-05T23:30:59.317Z,9.60
2023-05-05T23:37:02.957Z,13.00
2023-05-05T23:43:07.224Z,11.33
2023-05-05T23:49:09.713Z,13.93
2023-05-05T23:55:13.218Z,7.73
